• Join FlightAware (Why Join?)
  • Login
  • US Flag 
06:51PM EDT


 

Airport Tracker/Info


-or-


 

Live Flight TrackerFlight Track Log ✈ N773NC ✈ 30-Apr-2012 ✈ KORD - KATL

Flight Track Log - Related Links

Times and Time Zones

All times are in EDT time to prevent confusion due to time zone crossing. See the N773NC flight status page for this flight to view local times or setup timezone preferences in your user account.

Time Position Orientation Groundspeed Altitude Reporting Facility
EDT Latitude Longitude Course Direction KTS MPH feet Rate Location/Type
08:41PM 41.9167 -87.9333 192° South 208 239 2,900  Level Chicago TRACON
08:43PM 41.8167 -87.9625 166° South 231 266 6,300 2,340 Climbing Chicago Center
08:44PM 41.7372 -87.9364 164° South 266 306 9,400 2,760 Climbing Chicago Center
08:45PM 41.6597 -87.9075 167° South 282 325 11,900 1,800 Climbing Chicago Center
08:46PM 41.5656 -87.8789 167° South 308 354 13,100 2,040 Climbing Chicago Center
08:47PM 41.4650 -87.8481 165° South 349 402 16,000 2,340 Climbing Chicago Center
08:48PM 41.3603 -87.8117 169° South 376 433 17,800 1,980 Climbing Chicago Center
08:49PM 41.2642 -87.7864 169° South 387 445 20,000 2,040 Climbing Chicago Center
08:50PM 41.1553 -87.7586 170° South 397 457 21,900 1,860 Climbing Chicago Center
08:51PM 41.0425 -87.7311 169° South 407 468 23,800 1,740 Climbing Chicago Center
08:52PM 40.9272 -87.7011 169° South 412 474 25,400 1,620 Climbing Chicago Center
08:53PM 40.8144 -87.6708 168° South 417 480 27,100 1,440 Climbing Chicago Center
08:54PM 40.6969 -87.6383 167° South 417 480 28,300 1,260 Climbing Chicago Center
08:55PM 40.5650 -87.5981 171° South 436 502 29,700 1,620 Climbing Chicago Center
08:56PM 40.4481 -87.5739 173° South 436 502 31,600 1,980 Climbing Chicago Center
08:57PM 40.3317 -87.5544 173° South 428 493 34,000 1,380 Climbing Indianapolis Center
08:58PM 40.2258 -87.5375 175° South 403 464 34,600 480 Climbing Indianapolis Center
08:59PM 40.1178 -87.5261 173° South 393 452 35,000 180 Climbing Indianapolis Center
09:00PM 40.0081 -87.5089 164° South 398 458 35,000  Level Indianapolis Center
09:01PM 39.8989 -87.4675 153° Southeast 411 473 35,000  Level Indianapolis Center
09:02PM 39.7928 -87.3967 154° Southeast 422 486 35,000  Level Indianapolis Center
09:03PM 39.6864 -87.3289 156° South 429 494 35,000  Level Indianapolis Center
09:04PM 39.5819 -87.2694 167° South 420 483 35,000  Level Indianapolis Center
09:05PM 39.4706 -87.2367 166° South 409 471 35,000  Level Indianapolis Center
09:06PM 39.3589 -87.2014 170° South 409 471 35,000  Level Indianapolis Center
09:07PM 39.2492 -87.1769 171° South 409 471 35,000  Level Indianapolis Center
09:08PM 39.1392 -87.1553 167° South 404 465 35,000  Level Indianapolis Center
09:09PM 39.0194 -87.1200 165° South 404 465 35,000  Level Indianapolis Center
09:10PM 38.9078 -87.0825 165° South 410 472 35,000  Level Indianapolis Center
09:11PM 38.7964 -87.0450 166° South 410 472 35,000  Level Indianapolis Center
09:12PM 38.6950 -87.0136 166° South 415 478 35,000  Level Indianapolis Center
09:13PM 38.5814 -86.9761 165° South 410 472 35,000  Level Indianapolis Center
09:14PM 38.4700 -86.9392 163° South 410 472 35,000  Level Indianapolis Center
09:15PM 38.3583 -86.8969 169° South 415 478 35,000  Level Indianapolis Center
09:16PM 38.2425 -86.8678 167° South 421 484 35,000  Level Indianapolis Center
09:17PM 38.1164 -86.8303 168° South 426 490 35,000  Level Indianapolis Center
09:18PM 38.0044 -86.7992 168° South 426 490 35,000  Level Indianapolis Center
09:19PM 37.8906 -86.7678 168° South 426 490 35,000  Level Indianapolis Center
09:22PM 37.6236 -86.6969 169° South 421 484 35,000  Level Memphis Center
09:23PM 37.5061 -86.6683 165° South 426 490 35,000  Level Memphis Center
09:24PM 37.4053 -86.6339 158° South 426 490 35,000  Level Memphis Center
09:25PM 37.2908 -86.5767 151° Southeast 431 496 35,000  Level Memphis Center
09:26PM 37.1867 -86.5036 162° South 436 502 35,000  Level Memphis Center
09:27PM 37.0728 -86.4569 175° South 436 502 35,000  Level Memphis Center
09:28PM 36.9536 -86.4447 176° South 424 488 35,000  Level Memphis Center
09:29PM 36.8239 -86.4328 184° South 433 498 35,000  Level Memphis Center
09:30PM 36.7075 -86.4439 185° South 428 493 35,000  Level Memphis Center
09:31PM 36.5892 -86.4572 176° South 433 498 35,000 -360 Level Memphis Center
09:32PM 36.4681 -86.4475 173° South 428 493 34,300 -840 Descending Memphis Center
09:33PM 36.3467 -86.4303 175° South 434 499 33,400 -660 Descending Memphis Center
09:34PM 36.2231 -86.4181 176° South 445 512 33,000 -240 Descending Memphis Center
09:35PM 36.1144 -86.4081 175° South 445 512 33,000  Level Memphis Center
09:36PM 35.9908 -86.3936 175° South 445 512 33,000  Level Memphis Center
09:37PM 35.7589 -86.3675 167° South 433 498 33,000  Level Atlanta Center
09:38PM 35.6364 -86.3333 156° South 444 511 33,000  Level Atlanta Center
09:39PM 35.5208 -86.2689 152° Southeast 450 518 33,000  Level Atlanta Center
09:40PM 35.4072 -86.1944 150° Southeast 457 526 33,000  Level Atlanta Center
09:41PM 35.2961 -86.1153 146° Southeast 463 533 33,000  Level Atlanta Center
09:42PM 35.1869 -86.0261 146° Southeast 468 539 33,000  Level Atlanta Center
09:43PM 35.0797 -85.9372 146° Southeast 468 539 33,000 -600 Level Atlanta Center
09:44PM 34.9728 -85.8486 141° Southeast 473 544 31,900 -1,320 Descending Atlanta Center
09:45PM 34.8717 -85.7503 133° Southeast 473 544 30,400 -2,640 Descending Atlanta Center
09:46PM 34.7856 -85.6397 138° Southeast 461 531 26,700 -3,600 Descending Atlanta Center
09:47PM 34.6931 -85.5369 140° Southeast 456 525 23,300 -3,120 Descending Atlanta Center
09:48PM 34.5942 -85.4367 146° Southeast 461 531 20,500 -2,880 Descending Atlanta Center
09:49PM 34.4928 -85.3544 148° Southeast 454 522 17,600 -1,920 Descending Atlanta Center
09:50PM 34.3953 -85.2800 145° Southeast 441 507 16,700 -1,200 Descending Atlanta Center
09:51PM 34.3083 -85.2056 147° Southeast 405 466 15,200 -1,320 Descending Atlanta Center
09:52PM 34.2131 -85.1314 138° Southeast 399 459 14,100 -600 Descending Atlanta Center
09:53PM 34.1283 -85.0400 138° Southeast 405 466 14,000 -300 Descending Atlanta Center
09:54PM 34.0414 -84.9464 138° Southeast 411 473 13,600 -780 Descending Atlanta Center
09:55PM 33.9564 -84.8553 135° Southeast 411 473 12,500 -1,080 Descending Atlanta Center
09:56PM 33.8778 -84.7594 134° Southeast 405 466 11,500 -900 Descending Atlanta Center
09:57PM 33.8167 -84.6833 126° Southeast 390 449 11,000 -300 Descending Atlanta TRACON
09:58PM 33.7667 -84.6000 101° East 328 377 11,000 -180 Level Atlanta TRACON
09:59PM 33.7500 -84.5000 90° East 269 310 10,700 -840 Descending Atlanta TRACON
10:00PM 33.7500 -84.4167 90° East 270 311 9,400 -1,380 Descending Atlanta TRACON
10:01PM 33.7500 -84.3333 90° East 239 275 8,000 -1,200 Descending Atlanta TRACON
10:02PM 33.7500 -84.2667 164° South 207 238 7,000 -1,440 Descending Atlanta TRACON
10:03PM 33.7000 -84.2500 203° Southwest 187 215 5,200 -1,800 Descending Atlanta TRACON
10:04PM 33.6667 -84.2667 248° West 196 226 3,400 -1,500 Descending Atlanta TRACON
10:05PM 33.6500 -84.3167 270° West 171 197 2,300 -900 Descending Atlanta TRACON
10:06PM 33.6500 -84.3667 270° West 127 146 1,600 -720 Descending Atlanta TRACON